sensor_id;sensor_type;location;lat;lon;timestamp;P1;durP1;ratioP1;P2;durP2;ratioP2
40204;SDS011;26963;42.666;23.366;2023-02-25T00:01:52;34.05;;;24.00;;
40204;SDS011;26963;42.666;23.366;2023-02-25T00:04:19;32.58;;;22.83;;
40204;SDS011;26963;42.666;23.366;2023-02-25T00:06:45;34.78;;;23.10;;
40204;SDS011;26963;42.666;23.366;2023-02-25T00:09:11;34.67;;;23.75;;
40204;SDS011;26963;42.666;23.366;2023-02-25T00:11:37;37.58;;;24.23;;
40204;SDS011;26963;42.666;23.366;2023-02-25T00:14:03;34.60;;;23.00;;
40204;SDS011;26963;42.666;23.366;2023-02-25T00:16:28;34.38;;;23.58;;
40204;SDS011;26963;42.666;23.366;2023-02-25T00:18:54;35.97;;;22.98;;
40204;SDS011;26963;42.666;23.366;2023-02-25T00:21:20;33.47;;;23.50;;
40204;SDS011;26963;42.666;23.366;2023-02-25T00:23:47;35.90;;;21.90;;
40204;SDS011;26963;42.666;23.366;2023-02-25T00:26:14;35.03;;;23.35;;
40204;SDS011;26963;42.666;23.366;2023-02-25T00:28:41;31.73;;;22.20;;
40204;SDS011;26963;42.666;23.366;2023-02-25T00:31:40;33.22;;;21.73;;
40204;SDS011;26963;42.666;23.366;2023-02-25T00:33:59;34.22;;;21.65;;
40204;SDS011;26963;42.666;23.366;2023-02-25T00:36:25;35.95;;;22.98;;
40204;SDS011;26963;42.666;23.366;2023-02-25T00:38:52;30.60;;;21.58;;
40204;SDS011;26963;42.666;23.366;2023-02-25T00:41:27;30.55;;;21.52;;
40204;SDS011;26963;42.666;23.366;2023-02-25T00:43:58;29.75;;;20.55;;
40204;SDS011;26963;42.666;23.366;2023-02-25T00:46:25;29.55;;;21.00;;
40204;SDS011;26963;42.666;23.366;2023-02-25T00:48:52;32.95;;;21.23;;
40204;SDS011;26963;42.666;23.366;2023-02-25T00:51:20;32.50;;;20.83;;
40204;SDS011;26963;42.666;23.366;2023-02-25T00:53:47;30.45;;;21.10;;
40204;SDS011;26963;42.666;23.366;2023-02-25T00:56:13;28.35;;;20.48;;
40204;SDS011;26963;42.666;23.366;2023-02-25T00:58:41;28.77;;;20.20;;
40204;SDS011;26963;42.666;23.366;2023-02-25T01:01:19;28.60;;;19.27;;
40204;SDS011;26963;42.666;23.366;2023-02-25T01:03:44;34.13;;;21.63;;
40204;SDS011;26963;42.666;23.366;2023-02-25T01:06:10;31.42;;;19.98;;
40204;SDS011;26963;42.666;23.366;2023-02-25T01:08:36;27.75;;;20.40;;
40204;SDS011;26963;42.666;23.366;2023-02-25T01:11:11;28.90;;;21.10;;
40204;SDS011;26963;42.666;23.366;2023-02-25T01:13:45;30.73;;;20.98;;
40204;SDS011;26963;42.666;23.366;2023-02-25T01:16:13;32.35;;;21.10;;
40204;SDS011;26963;42.666;23.366;2023-02-25T01:18:40;29.45;;;18.58;;
40204;SDS011;26963;42.666;23.366;2023-02-25T01:21:07;25.65;;;19.35;;
40204;SDS011;26963;42.666;23.366;2023-02-25T01:23:38;27.20;;;17.38;;
40204;SDS011;26963;42.666;23.366;2023-02-25T01:26:03;26.00;;;17.88;;
40204;SDS011;26963;42.666;23.366;2023-02-25T01:28:29;27.73;;;18.25;;
40204;SDS011;26963;42.666;23.366;2023-02-25T01:30:55;24.92;;;17.95;;
40204;SDS011;26963;42.666;23.366;2023-02-25T01:33:20;26.67;;;18.08;;
40204;SDS011;26963;42.666;23.366;2023-02-25T01:35:46;27.55;;;17.63;;
40204;SDS011;26963;42.666;23.366;2023-02-25T01:38:11;25.73;;;17.20;;
40204;SDS011;26963;42.666;23.366;2023-02-25T01:40:37;24.27;;;16.80;;
40204;SDS011;26963;42.666;23.366;2023-02-25T01:43:03;26.48;;;16.92;;
40204;SDS011;26963;42.666;23.366;2023-02-25T01:45:31;30.75;;;17.30;;
40204;SDS011;26963;42.666;23.366;2023-02-25T01:48:16;26.63;;;16.23;;
40204;SDS011;26963;42.666;23.366;2023-02-25T01:50:54;25.15;;;16.85;;
40204;SDS011;26963;42.666;23.366;2023-02-25T01:53:27;29.60;;;17.50;;
40204;SDS011;26963;42.666;23.366;2023-02-25T01:55:57;25.83;;;17.02;;
40204;SDS011;26963;42.666;23.366;2023-02-25T01:58:24;23.20;;;17.45;;
40204;SDS011;26963;42.666;23.366;2023-02-25T02:00:51;24.25;;;15.95;;
40204;SDS011;26963;42.666;23.366;2023-02-25T02:03:20;25.98;;;16.08;;
40204;SDS011;26963;42.666;23.366;2023-02-25T02:05:54;23.08;;;15.70;;
40204;SDS011;26963;42.666;23.366;2023-02-25T02:08:24;22.50;;;15.95;;
40204;SDS011;26963;42.666;23.366;2023-02-25T02:10:50;25.42;;;16.83;;
40204;SDS011;26963;42.666;23.366;2023-02-25T02:13:17;24.73;;;15.80;;
40204;SDS011;26963;42.666;23.366;2023-02-25T02:18:32;24.85;;;16.08;;
40204;SDS011;26963;42.666;23.366;2023-02-25T02:21:08;28.55;;;16.58;;
40204;SDS011;26963;42.666;23.366;2023-02-25T02:26:36;23.45;;;16.90;;
40204;SDS011;26963;42.666;23.366;2023-02-25T02:32:25;23.35;;;15.77;;
40204;SDS011;26963;42.666;23.366;2023-02-25T02:46:05;21.30;;;15.55;;
40204;SDS011;26963;42.666;23.366;2023-02-25T02:51:17;24.00;;;16.67;;
40204;SDS011;26963;42.666;23.366;2023-02-25T02:53:50;24.13;;;16.83;;
40204;SDS011;26963;42.666;23.366;2023-02-25T02:56:18;25.95;;;16.20;;
40204;SDS011;26963;42.666;23.366;2023-02-25T02:58:46;24.02;;;16.85;;
40204;SDS011;26963;42.666;23.366;2023-02-25T03:01:18;27.83;;;16.45;;
40204;SDS011;26963;42.666;23.366;2023-02-25T03:03:51;20.27;;;15.75;;
40204;SDS011;26963;42.666;23.366;2023-02-25T03:06:32;23.90;;;16.35;;
40204;SDS011;26963;42.666;23.366;2023-02-25T03:09:09;24.15;;;16.50;;
40204;SDS011;26963;42.666;23.366;2023-02-25T03:11:40;25.25;;;16.17;;
40204;SDS011;26963;42.666;23.366;2023-02-25T03:14:06;21.50;;;15.45;;
40204;SDS011;26963;42.666;23.366;2023-02-25T03:16:44;25.55;;;16.42;;
40204;SDS011;26963;42.666;23.366;2023-02-25T03:19:15;27.40;;;16.20;;
40204;SDS011;26963;42.666;23.366;2023-02-25T03:21:49;24.50;;;16.50;;
40204;SDS011;26963;42.666;23.366;2023-02-25T03:24:24;29.55;;;16.83;;
40204;SDS011;26963;42.666;23.366;2023-02-25T03:26:56;25.95;;;16.90;;
40204;SDS011;26963;42.666;23.366;2023-02-25T03:29:23;25.35;;;17.63;;
40204;SDS011;26963;42.666;23.366;2023-02-25T03:31:52;27.52;;;18.00;;
40204;SDS011;26963;42.666;23.366;2023-02-25T03:34:28;27.50;;;17.23;;
40204;SDS011;26963;42.666;23.366;2023-02-25T03:39:30;26.08;;;17.05;;
40204;SDS011;26963;42.666;23.366;2023-02-25T03:42:00;25.17;;;16.77;;
40204;SDS011;26963;42.666;23.366;2023-02-25T03:44:36;24.50;;;17.40;;
40204;SDS011;26963;42.666;23.366;2023-02-25T03:47:06;30.38;;;17.95;;
40204;SDS011;26963;42.666;23.366;2023-02-25T03:49:49;27.45;;;17.40;;
40204;SDS011;26963;42.666;23.366;2023-02-25T03:52:24;27.08;;;17.08;;
40204;SDS011;26963;42.666;23.366;2023-02-25T03:54:52;23.52;;;16.85;;
40204;SDS011;26963;42.666;23.366;2023-02-25T03:57:21;25.73;;;17.60;;
40204;SDS011;26963;42.666;23.366;2023-02-25T03:59:52;27.33;;;17.17;;
40204;SDS011;26963;42.666;23.366;2023-02-25T04:02:29;26.33;;;17.25;;
40204;SDS011;26963;42.666;23.366;2023-02-25T04:04:57;23.75;;;14.82;;
40204;SDS011;26963;42.666;23.366;2023-02-25T04:07:23;24.83;;;15.88;;
40204;SDS011;26963;42.666;23.366;2023-02-25T04:09:48;28.90;;;16.58;;
40204;SDS011;26963;42.666;23.366;2023-02-25T04:12:14;22.98;;;16.52;;
40204;SDS011;26963;42.666;23.366;2023-02-25T04:14:40;26.92;;;17.20;;
40204;SDS011;26963;42.666;23.366;2023-02-25T04:17:06;26.38;;;16.85;;
40204;SDS011;26963;42.666;23.366;2023-02-25T04:19:31;26.40;;;16.90;;
40204;SDS011;26963;42.666;23.366;2023-02-25T04:21:57;24.48;;;16.92;;
40204;SDS011;26963;42.666;23.366;2023-02-25T04:24:24;23.33;;;16.15;;
40204;SDS011;26963;42.666;23.366;2023-02-25T04:26:50;23.02;;;16.83;;
40204;SDS011;26963;42.666;23.366;2023-02-25T04:29:23;26.80;;;16.77;;
40204;SDS011;26963;42.666;23.366;2023-02-25T04:31:49;26.40;;;16.33;;
40204;SDS011;26963;42.666;23.366;2023-02-25T04:34:15;23.70;;;15.95;;
40204;SDS011;26963;42.666;23.366;2023-02-25T04:36:41;24.77;;;16.15;;
40204;SDS011;26963;42.666;23.366;2023-02-25T04:39:08;23.90;;;16.42;;
40204;SDS011;26963;42.666;23.366;2023-02-25T04:41:35;25.67;;;17.63;;
40204;SDS011;26963;42.666;23.366;2023-02-25T04:44:01;24.92;;;17.55;;
40204;SDS011;26963;42.666;23.366;2023-02-25T04:46:30;30.23;;;16.92;;
40204;SDS011;26963;42.666;23.366;2023-02-25T04:49:00;30.17;;;17.10;;
40204;SDS011;26963;42.666;23.366;2023-02-25T04:51:26;25.67;;;16.55;;
40204;SDS011;26963;42.666;23.366;2023-02-25T04:53:51;28.58;;;18.38;;
40204;SDS011;26963;42.666;23.366;2023-02-25T04:56:17;26.45;;;16.98;;
40204;SDS011;26963;42.666;23.366;2023-02-25T04:58:42;26.92;;;17.55;;
40204;SDS011;26963;42.666;23.366;2023-02-25T05:01:09;25.75;;;16.83;;
40204;SDS011;26963;42.666;23.366;2023-02-25T05:03:35;28.35;;;17.95;;
40204;SDS011;26963;42.666;23.366;2023-02-25T05:06:01;30.95;;;17.95;;
40204;SDS011;26963;42.666;23.366;2023-02-25T05:08:27;25.02;;;16.67;;
40204;SDS011;26963;42.666;23.366;2023-02-25T05:10:53;27.55;;;17.38;;
40204;SDS011;26963;42.666;23.366;2023-02-25T05:13:19;25.13;;;16.73;;
40204;SDS011;26963;42.666;23.366;2023-02-25T05:15:45;24.20;;;14.98;;
40204;SDS011;26963;42.666;23.366;2023-02-25T05:18:12;29.00;;;16.25;;
40204;SDS011;26963;42.666;23.366;2023-02-25T05:20:38;24.85;;;17.02;;
40204;SDS011;26963;42.666;23.366;2023-02-25T05:23:06;33.55;;;17.63;;
40204;SDS011;26963;42.666;23.366;2023-02-25T05:25:32;31.20;;;21.67;;
40204;SDS011;26963;42.666;23.366;2023-02-25T05:27:58;31.30;;;21.02;;
40204;SDS011;26963;42.666;23.366;2023-02-25T05:30:24;34.28;;;20.58;;
40204;SDS011;26963;42.666;23.366;2023-02-25T05:32:52;33.47;;;22.67;;
40204;SDS011;26963;42.666;23.366;2023-02-25T05:35:18;31.17;;;22.02;;
40204;SDS011;26963;42.666;23.366;2023-02-25T05:37:44;33.03;;;22.80;;
40204;SDS011;26963;42.666;23.366;2023-02-25T05:40:09;31.48;;;22.60;;
40204;SDS011;26963;42.666;23.366;2023-02-25T05:42:38;32.97;;;22.75;;
40204;SDS011;26963;42.666;23.366;2023-02-25T05:45:04;34.90;;;23.25;;
40204;SDS011;26963;42.666;23.366;2023-02-25T05:47:31;34.70;;;21.30;;
40204;SDS011;26963;42.666;23.366;2023-02-25T05:49:56;29.85;;;19.52;;
40204;SDS011;26963;42.666;23.366;2023-02-25T05:52:22;29.83;;;19.92;;
40204;SDS011;26963;42.666;23.366;2023-02-25T05:54:47;30.20;;;18.83;;
40204;SDS011;26963;42.666;23.366;2023-02-25T05:57:13;29.58;;;19.02;;
40204;SDS011;26963;42.666;23.366;2023-02-25T06:12:00;33.42;;;21.58;;
40204;SDS011;26963;42.666;23.366;2023-02-25T06:14:25;29.38;;;21.50;;
40204;SDS011;26963;42.666;23.366;2023-02-25T06:16:51;30.33;;;20.48;;
40204;SDS011;26963;42.666;23.366;2023-02-25T06:19:21;29.75;;;19.48;;
40204;SDS011;26963;42.666;23.366;2023-02-25T06:21:47;31.85;;;19.65;;
40204;SDS011;26963;42.666;23.366;2023-02-25T06:24:13;32.45;;;20.25;;
40204;SDS011;26963;42.666;23.366;2023-02-25T06:26:40;31.70;;;20.63;;
40204;SDS011;26963;42.666;23.366;2023-02-25T06:29:07;30.58;;;19.98;;
40204;SDS011;26963;42.666;23.366;2023-02-25T06:31:34;34.63;;;19.15;;
40204;SDS011;26963;42.666;23.366;2023-02-25T06:34:00;27.52;;;18.05;;
40204;SDS011;26963;42.666;23.366;2023-02-25T06:36:25;29.38;;;19.33;;
40204;SDS011;26963;42.666;23.366;2023-02-25T06:38:51;27.73;;;18.50;;
40204;SDS011;26963;42.666;23.366;2023-02-25T06:41:18;27.58;;;19.55;;
40204;SDS011;26963;42.666;23.366;2023-02-25T06:43:45;30.52;;;20.27;;
40204;SDS011;26963;42.666;23.366;2023-02-25T06:46:12;32.42;;;18.83;;
40204;SDS011;26963;42.666;23.366;2023-02-25T06:48:39;28.30;;;18.98;;
40204;SDS011;26963;42.666;23.366;2023-02-25T06:51:05;35.47;;;20.17;;
40204;SDS011;26963;42.666;23.366;2023-02-25T06:53:36;34.30;;;18.92;;
40204;SDS011;26963;42.666;23.366;2023-02-25T06:56:02;30.23;;;19.67;;
40204;SDS011;26963;42.666;23.366;2023-02-25T06:58:28;28.40;;;19.23;;
40204;SDS011;26963;42.666;23.366;2023-02-25T07:00:53;27.33;;;19.05;;
40204;SDS011;26963;42.666;23.366;2023-02-25T07:03:19;27.10;;;18.15;;
40204;SDS011;26963;42.666;23.366;2023-02-25T07:05:45;38.95;;;24.80;;
40204;SDS011;26963;42.666;23.366;2023-02-25T07:08:10;32.60;;;21.20;;
40204;SDS011;26963;42.666;23.366;2023-02-25T07:10:36;31.13;;;19.38;;
40204;SDS011;26963;42.666;23.366;2023-02-25T07:13:04;23.63;;;15.93;;
40204;SDS011;26963;42.666;23.366;2023-02-25T07:15:30;26.48;;;18.02;;
40204;SDS011;26963;42.666;23.366;2023-02-25T07:17:56;27.85;;;17.70;;
40204;SDS011;26963;42.666;23.366;2023-02-25T07:20:22;27.52;;;16.92;;
40204;SDS011;26963;42.666;23.366;2023-02-25T07:22:47;27.10;;;17.33;;
40204;SDS011;26963;42.666;23.366;2023-02-25T07:25:13;27.55;;;18.17;;
40204;SDS011;26963;42.666;23.366;2023-02-25T07:27:39;28.75;;;17.95;;
40204;SDS011;26963;42.666;23.366;2023-02-25T07:30:05;28.20;;;16.88;;
40204;SDS011;26963;42.666;23.366;2023-02-25T07:32:31;24.55;;;15.05;;
40204;SDS011;26963;42.666;23.366;2023-02-25T07:34:57;27.02;;;14.27;;
40204;SDS011;26963;42.666;23.366;2023-02-25T07:37:22;27.48;;;15.50;;
40204;SDS011;26963;42.666;23.366;2023-02-25T07:39:48;22.02;;;15.02;;
40204;SDS011;26963;42.666;23.366;2023-02-25T07:42:13;37.75;;;21.60;;
40204;SDS011;26963;42.666;23.366;2023-02-25T07:44:39;28.02;;;16.95;;
40204;SDS011;26963;42.666;23.366;2023-02-25T07:47:11;25.15;;;15.07;;
40204;SDS011;26963;42.666;23.366;2023-02-25T07:49:36;27.05;;;14.88;;
40204;SDS011;26963;42.666;23.366;2023-02-25T07:52:02;27.25;;;13.77;;
40204;SDS011;26963;42.666;23.366;2023-02-25T07:54:27;28.42;;;14.27;;
40204;SDS011;26963;42.666;23.366;2023-02-25T07:56:53;24.02;;;13.75;;
40204;SDS011;26963;42.666;23.366;2023-02-25T07:59:18;28.40;;;14.63;;
40204;SDS011;26963;42.666;23.366;2023-02-25T08:01:44;21.48;;;14.52;;
40204;SDS011;26963;42.666;23.366;2023-02-25T08:04:09;21.58;;;13.88;;
40204;SDS011;26963;42.666;23.366;2023-02-25T08:06:36;26.05;;;14.75;;
40204;SDS011;26963;42.666;23.366;2023-02-25T08:09:04;25.75;;;14.27;;
40204;SDS011;26963;42.666;23.366;2023-02-25T08:11:35;28.67;;;15.30;;
40204;SDS011;26963;42.666;23.366;2023-02-25T08:14:01;25.48;;;16.23;;
40204;SDS011;26963;42.666;23.366;2023-02-25T08:16:27;30.98;;;15.30;;
40204;SDS011;26963;42.666;23.366;2023-02-25T08:18:52;34.15;;;15.40;;
40204;SDS011;26963;42.666;23.366;2023-02-25T08:21:19;33.10;;;16.60;;
40204;SDS011;26963;42.666;23.366;2023-02-25T08:23:45;26.95;;;15.13;;
40204;SDS011;26963;42.666;23.366;2023-02-25T08:26:12;33.13;;;15.45;;
40204;SDS011;26963;42.666;23.366;2023-02-25T08:28:41;35.00;;;16.33;;
40204;SDS011;26963;42.666;23.366;2023-02-25T08:31:10;32.33;;;17.27;;
40204;SDS011;26963;42.666;23.366;2023-02-25T08:33:37;28.38;;;17.80;;
40204;SDS011;26963;42.666;23.366;2023-02-25T08:38:38;20.50;;;14.25;;
40204;SDS011;26963;42.666;23.366;2023-02-25T08:41:07;37.67;;;20.15;;
40204;SDS011;26963;42.666;23.366;2023-02-25T08:43:33;25.60;;;15.10;;
40204;SDS011;26963;42.666;23.366;2023-02-25T08:46:00;34.63;;;16.88;;
40204;SDS011;26963;42.666;23.366;2023-02-25T08:48:25;25.77;;;15.18;;
40204;SDS011;26963;42.666;23.366;2023-02-25T08:50:51;29.92;;;14.80;;
40204;SDS011;26963;42.666;23.366;2023-02-25T08:53:16;24.70;;;15.48;;
40204;SDS011;26963;42.666;23.366;2023-02-25T08:55:44;26.27;;;14.48;;
40204;SDS011;26963;42.666;23.366;2023-02-25T08:58:11;29.40;;;17.27;;
40204;SDS011;26963;42.666;23.366;2023-02-25T09:00:37;25.90;;;16.00;;
40204;SDS011;26963;42.666;23.366;2023-02-25T09:03:03;36.42;;;16.77;;
40204;SDS011;26963;42.666;23.366;2023-02-25T09:05:28;29.05;;;18.30;;
40204;SDS011;26963;42.666;23.366;2023-02-25T09:07:54;32.53;;;17.90;;
40204;SDS011;26963;42.666;23.366;2023-02-25T09:10:20;33.97;;;18.63;;
40204;SDS011;26963;42.666;23.366;2023-02-25T09:12:45;33.03;;;21.45;;
40204;SDS011;26963;42.666;23.366;2023-02-25T09:15:11;27.77;;;19.02;;
40204;SDS011;26963;42.666;23.366;2023-02-25T09:17:38;35.90;;;18.67;;
40204;SDS011;26963;42.666;23.366;2023-02-25T09:20:05;30.88;;;19.10;;
40204;SDS011;26963;42.666;23.366;2023-02-25T09:22:34;31.80;;;18.90;;
40204;SDS011;26963;42.666;23.366;2023-02-25T09:24:59;31.52;;;17.75;;
40204;SDS011;26963;42.666;23.366;2023-02-25T09:27:25;37.70;;;17.55;;
40204;SDS011;26963;42.666;23.366;2023-02-25T09:29:51;36.65;;;19.90;;
40204;SDS011;26963;42.666;23.366;2023-02-25T09:32:18;32.95;;;17.48;;
40204;SDS011;26963;42.666;23.366;2023-02-25T09:34:45;33.50;;;18.80;;
40204;SDS011;26963;42.666;23.366;2023-02-25T09:37:13;32.70;;;18.35;;
40204;SDS011;26963;42.666;23.366;2023-02-25T09:39:39;33.58;;;19.15;;
40204;SDS011;26963;42.666;23.366;2023-02-25T09:42:17;32.20;;;19.58;;
40204;SDS011;26963;42.666;23.366;2023-02-25T09:44:54;38.70;;;20.40;;
40204;SDS011;26963;42.666;23.366;2023-02-25T09:47:28;36.80;;;20.50;;
40204;SDS011;26963;42.666;23.366;2023-02-25T09:50:03;31.83;;;20.17;;
40204;SDS011;26963;42.666;23.366;2023-02-25T09:52:33;31.92;;;19.70;;
40204;SDS011;26963;42.666;23.366;2023-02-25T09:55:23;38.97;;;19.48;;
40204;SDS011;26963;42.666;23.366;2023-02-25T10:03:53;39.55;;;19.23;;
40204;SDS011;26963;42.666;23.366;2023-02-25T10:25:15;40.72;;;20.63;;
40204;SDS011;26963;42.666;23.366;2023-02-25T10:27:49;36.35;;;19.50;;
40204;SDS011;26963;42.666;23.366;2023-02-25T10:30:24;34.03;;;19.25;;
40204;SDS011;26963;42.666;23.366;2023-02-25T10:32:55;30.73;;;16.73;;
40204;SDS011;26963;42.666;23.366;2023-02-25T10:35:26;39.13;;;16.95;;
40204;SDS011;26963;42.666;23.366;2023-02-25T10:37:53;37.40;;;17.27;;
40204;SDS011;26963;42.666;23.366;2023-02-25T10:40:23;31.38;;;16.55;;
40204;SDS011;26963;42.666;23.366;2023-02-25T10:42:52;34.58;;;16.88;;
40204;SDS011;26963;42.666;23.366;2023-02-25T10:45:26;28.27;;;15.68;;
40204;SDS011;26963;42.666;23.366;2023-02-25T10:48:05;32.05;;;15.68;;
40204;SDS011;26963;42.666;23.366;2023-02-25T10:50:37;30.77;;;14.20;;
40204;SDS011;26963;42.666;23.366;2023-02-25T10:53:04;34.38;;;13.77;;
40204;SDS011;26963;42.666;23.366;2023-02-25T10:58:22;25.77;;;12.43;;
40204;SDS011;26963;42.666;23.366;2023-02-25T11:01:00;32.78;;;13.55;;
40204;SDS011;26963;42.666;23.366;2023-02-25T11:06:12;32.20;;;13.57;;
40204;SDS011;26963;42.666;23.366;2023-02-25T11:16:07;34.10;;;15.02;;
40204;SDS011;26963;42.666;23.366;2023-02-25T11:18:36;28.75;;;12.95;;
40204;SDS011;26963;42.666;23.366;2023-02-25T11:21:04;38.28;;;13.27;;
40204;SDS011;26963;42.666;23.366;2023-02-25T11:26:00;31.08;;;12.70;;
40204;SDS011;26963;42.666;23.366;2023-02-25T11:28:29;27.45;;;12.70;;
40204;SDS011;26963;42.666;23.366;2023-02-25T11:31:33;29.92;;;12.68;;
40204;SDS011;26963;42.666;23.366;2023-02-25T11:33:55;30.65;;;11.75;;
40204;SDS011;26963;42.666;23.366;2023-02-25T11:36:33;28.25;;;12.15;;
40204;SDS011;26963;42.666;23.366;2023-02-25T11:39:20;28.92;;;11.68;;
40204;SDS011;26963;42.666;23.366;2023-02-25T11:41:51;32.10;;;11.40;;
40204;SDS011;26963;42.666;23.366;2023-02-25T11:44:28;36.67;;;10.88;;
40204;SDS011;26963;42.666;23.366;2023-02-25T11:53:05;32.95;;;10.13;;
40204;SDS011;26963;42.666;23.366;2023-02-25T12:14:52;32.33;;;10.40;;
40204;SDS011;26963;42.666;23.366;2023-02-25T12:23:05;30.08;;;9.43;;
40204;SDS011;26963;42.666;23.366;2023-02-25T12:45:30;27.58;;;9.05;;
40204;SDS011;26963;42.666;23.366;2023-02-25T12:50:41;28.85;;;9.40;;
40204;SDS011;26963;42.666;23.366;2023-02-25T13:15:49;22.30;;;6.90;;
40204;SDS011;26963;42.666;23.366;2023-02-25T13:18:42;23.88;;;6.43;;
40204;SDS011;26963;42.666;23.366;2023-02-25T13:21:38;21.77;;;6.30;;
40204;SDS011;26963;42.666;23.366;2023-02-25T13:32:37;25.60;;;7.03;;
40204;SDS011;26963;42.666;23.366;2023-02-25T13:37:59;22.52;;;6.53;;
40204;SDS011;26963;42.666;23.366;2023-02-25T13:40:57;18.30;;;6.55;;
40204;SDS011;26963;42.666;23.366;2023-02-25T13:46:42;20.17;;;5.40;;
40204;SDS011;26963;42.666;23.366;2023-02-25T13:49:25;26.17;;;5.82;;
40204;SDS011;26963;42.666;23.366;2023-02-25T14:03:32;18.95;;;5.30;;
40204;SDS011;26963;42.666;23.366;2023-02-25T14:09:34;21.75;;;5.75;;
40204;SDS011;26963;42.666;23.366;2023-02-25T14:29:28;19.33;;;5.65;;
40204;SDS011;26963;42.666;23.366;2023-02-25T14:32:21;17.77;;;5.38;;
40204;SDS011;26963;42.666;23.366;2023-02-25T14:45:50;21.02;;;6.43;;
40204;SDS011;26963;42.666;23.366;2023-02-25T14:48:39;22.05;;;6.40;;
40204;SDS011;26963;42.666;23.366;2023-02-25T14:56:45;23.50;;;6.15;;
40204;SDS011;26963;42.666;23.366;2023-02-25T15:04:54;25.70;;;6.20;;
40204;SDS011;26963;42.666;23.366;2023-02-25T15:10:47;20.30;;;6.15;;
40204;SDS011;26963;42.666;23.366;2023-02-25T15:21:44;16.27;;;5.30;;
40204;SDS011;26963;42.666;23.366;2023-02-25T15:26:50;25.02;;;6.00;;
40204;SDS011;26963;42.666;23.366;2023-02-25T15:32:14;22.23;;;7.25;;
40204;SDS011;26963;42.666;23.366;2023-02-25T15:39:59;22.33;;;6.88;;
40204;SDS011;26963;42.666;23.366;2023-02-25T15:55:49;20.63;;;6.07;;
40204;SDS011;26963;42.666;23.366;2023-02-25T16:05:52;19.27;;;7.35;;
40204;SDS011;26963;42.666;23.366;2023-02-25T16:08:26;24.75;;;8.77;;
40204;SDS011;26963;42.666;23.366;2023-02-25T16:10:55;21.45;;;7.40;;
40204;SDS011;26963;42.666;23.366;2023-02-25T16:13:31;25.65;;;7.68;;
40204;SDS011;26963;42.666;23.366;2023-02-25T16:16:00;27.52;;;6.78;;
40204;SDS011;26963;42.666;23.366;2023-02-25T16:18:30;26.20;;;6.60;;
40204;SDS011;26963;42.666;23.366;2023-02-25T16:21:04;23.98;;;7.05;;
40204;SDS011;26963;42.666;23.366;2023-02-25T16:23:32;22.48;;;6.28;;
40204;SDS011;26963;42.666;23.366;2023-02-25T16:28:47;16.33;;;6.13;;
40204;SDS011;26963;42.666;23.366;2023-02-25T16:31:31;27.92;;;6.28;;
40204;SDS011;26963;42.666;23.366;2023-02-25T16:34:04;24.08;;;7.07;;
40204;SDS011;26963;42.666;23.366;2023-02-25T16:39:05;19.05;;;6.38;;
40204;SDS011;26963;42.666;23.366;2023-02-25T16:41:36;22.40;;;7.53;;
40204;SDS011;26963;42.666;23.366;2023-02-25T16:44:02;23.48;;;5.97;;
40204;SDS011;26963;42.666;23.366;2023-02-25T16:46:32;21.08;;;8.30;;
40204;SDS011;26963;42.666;23.366;2023-02-25T16:49:00;25.67;;;11.60;;
40204;SDS011;26963;42.666;23.366;2023-02-25T16:51:33;31.80;;;10.38;;
40204;SDS011;26963;42.666;23.366;2023-02-25T16:54:12;26.75;;;10.70;;
40204;SDS011;26963;42.666;23.366;2023-02-25T16:56:42;28.45;;;8.05;;
40204;SDS011;26963;42.666;23.366;2023-02-25T17:01:39;21.77;;;8.32;;
40204;SDS011;26963;42.666;23.366;2023-02-25T17:04:20;24.58;;;8.85;;
40204;SDS011;26963;42.666;23.366;2023-02-25T17:09:59;21.55;;;8.75;;
40204;SDS011;26963;42.666;23.366;2023-02-25T17:15:26;26.58;;;9.07;;
40204;SDS011;26963;42.666;23.366;2023-02-25T17:20:44;21.45;;;8.38;;
40204;SDS011;26963;42.666;23.366;2023-02-25T17:23:11;26.83;;;9.45;;
40204;SDS011;26963;42.666;23.366;2023-02-25T17:25:40;23.00;;;7.57;;
40204;SDS011;26963;42.666;23.366;2023-02-25T17:28:13;19.95;;;6.18;;
40204;SDS011;26963;42.666;23.366;2023-02-25T17:30:46;21.10;;;8.52;;
40204;SDS011;26963;42.666;23.366;2023-02-25T17:33:26;29.50;;;8.07;;
40204;SDS011;26963;42.666;23.366;2023-02-25T17:35:55;22.40;;;7.97;;
40204;SDS011;26963;42.666;23.366;2023-02-25T17:38:23;23.05;;;7.97;;
40204;SDS011;26963;42.666;23.366;2023-02-25T17:40:50;23.45;;;7.80;;
40204;SDS011;26963;42.666;23.366;2023-02-25T17:43:23;22.83;;;7.75;;
40204;SDS011;26963;42.666;23.366;2023-02-25T17:46:02;31.70;;;9.65;;
40204;SDS011;26963;42.666;23.366;2023-02-25T17:48:40;25.05;;;8.98;;
40204;SDS011;26963;42.666;23.366;2023-02-25T17:51:13;27.27;;;10.13;;
40204;SDS011;26963;42.666;23.366;2023-02-25T17:53:47;28.58;;;9.95;;
40204;SDS011;26963;42.666;23.366;2023-02-25T17:56:19;24.17;;;8.50;;
40204;SDS011;26963;42.666;23.366;2023-02-25T17:58:49;21.95;;;7.05;;
40204;SDS011;26963;42.666;23.366;2023-02-25T18:01:27;21.05;;;7.68;;
40204;SDS011;26963;42.666;23.366;2023-02-25T18:03:55;16.70;;;7.28;;
40204;SDS011;26963;42.666;23.366;2023-02-25T18:06:57;19.95;;;7.32;;
40204;SDS011;26963;42.666;23.366;2023-02-25T18:12:00;24.23;;;6.95;;
40204;SDS011;26963;42.666;23.366;2023-02-25T18:14:31;27.08;;;8.65;;
40204;SDS011;26963;42.666;23.366;2023-02-25T18:17:00;21.38;;;7.10;;
40204;SDS011;26963;42.666;23.366;2023-02-25T18:19:36;15.52;;;6.13;;
40204;SDS011;26963;42.666;23.366;2023-02-25T18:22:05;26.58;;;11.52;;
40204;SDS011;26963;42.666;23.366;2023-02-25T18:24:34;24.00;;;9.05;;
40204;SDS011;26963;42.666;23.366;2023-02-25T18:29:50;24.90;;;7.10;;
40204;SDS011;26963;42.666;23.366;2023-02-25T18:32:16;23.95;;;8.27;;
40204;SDS011;26963;42.666;23.366;2023-02-25T18:34:42;24.65;;;7.82;;
40204;SDS011;26963;42.666;23.366;2023-02-25T18:37:09;19.83;;;7.38;;
40204;SDS011;26963;42.666;23.366;2023-02-25T18:39:37;23.42;;;7.43;;
40204;SDS011;26963;42.666;23.366;2023-02-25T18:42:03;20.85;;;7.45;;
40204;SDS011;26963;42.666;23.366;2023-02-25T18:44:29;23.15;;;7.03;;
40204;SDS011;26963;42.666;23.366;2023-02-25T18:46:55;16.33;;;6.88;;
40204;SDS011;26963;42.666;23.366;2023-02-25T18:49:20;21.35;;;7.28;;
40204;SDS011;26963;42.666;23.366;2023-02-25T18:51:46;18.35;;;6.53;;
40204;SDS011;26963;42.666;23.366;2023-02-25T18:54:15;22.50;;;7.07;;
40204;SDS011;26963;42.666;23.366;2023-02-25T18:56:41;21.27;;;7.60;;
40204;SDS011;26963;42.666;23.366;2023-02-25T18:59:07;21.67;;;7.35;;
40204;SDS011;26963;42.666;23.366;2023-02-25T19:01:32;19.48;;;6.88;;
40204;SDS011;26963;42.666;23.366;2023-02-25T19:03:58;19.50;;;6.30;;
40204;SDS011;26963;42.666;23.366;2023-02-25T19:06:27;17.90;;;6.88;;
40204;SDS011;26963;42.666;23.366;2023-02-25T19:08:54;19.67;;;6.70;;
40204;SDS011;26963;42.666;23.366;2023-02-25T19:11:23;21.10;;;7.82;;
40204;SDS011;26963;42.666;23.366;2023-02-25T19:13:51;22.95;;;7.60;;
40204;SDS011;26963;42.666;23.366;2023-02-25T19:16:17;20.70;;;7.53;;